createdAt,value
2022-11-10T00:02:10.353Z,96921.88
2022-11-10T00:04:38.095Z,96923.50
2022-11-10T00:07:06.144Z,96926.41
2022-11-10T00:09:33.973Z,96932.34
2022-11-10T00:12:07.904Z,96927.06
2022-11-10T00:14:54.208Z,96931.06
2022-11-10T00:17:21.980Z,96931.97
2022-11-10T00:19:49.958Z,96944.00
2022-11-10T00:22:17.647Z,96940.16
2022-11-10T00:24:45.610Z,96938.28
2022-11-10T00:27:14.659Z,96942.59
2022-11-10T00:29:43.938Z,96940.50
2022-11-10T00:32:11.923Z,96953.53
2022-11-10T00:34:39.731Z,96957.03
2022-11-10T00:37:07.489Z,96952.88
2022-11-10T00:39:35.187Z,96961.69
2022-11-10T00:42:03.768Z,96970.75
2022-11-10T00:44:31.575Z,96967.66
2022-11-10T00:47:01.032Z,96973.81
2022-11-10T00:49:28.962Z,96973.81
2022-11-10T00:51:56.997Z,96972.56
2022-11-10T00:54:24.962Z,96983.25
2022-11-10T00:56:52.697Z,96979.53
2022-11-10T00:59:20.384Z,96990.22
2022-11-10T01:01:48.195Z,96992.31
2022-11-10T01:04:17.249Z,96993.78
2022-11-10T01:06:48.085Z,96999.75
2022-11-10T01:09:16.010Z,96999.75
2022-11-10T01:11:43.765Z,97006.75
2022-11-10T01:14:11.523Z,97004.34
2022-11-10T01:16:39.327Z,97006.81
2022-11-10T01:19:07.036Z,97013.41
2022-11-10T01:21:36.629Z,97010.94
2022-11-10T01:24:04.650Z,97005.16
2022-11-10T01:26:32.453Z,97005.81
2022-11-10T01:29:00.854Z,97004.81
2022-11-10T01:31:28.628Z,97001.75
2022-11-10T01:33:56.306Z,97009.38
2022-11-10T01:36:24.034Z,97012.50
2022-11-10T01:38:53.151Z,97008.56
2022-11-10T01:41:20.930Z,97006.09
2022-11-10T01:43:48.650Z,97008.19
2022-11-10T01:46:16.843Z,97013.09
2022-11-10T01:48:46.741Z,97021.31
2022-11-10T01:51:19.460Z,97018.50
2022-11-10T01:53:51.639Z,97022.44
2022-11-10T01:56:22.510Z,97016.94
2022-11-10T01:58:54.958Z,97023.47
2022-11-10T02:01:23.925Z,97028.81
2022-11-10T02:03:54.785Z,97010.97
2022-11-10T02:06:27.822Z,97026.13
2022-11-10T02:08:57.013Z,97029.44
2022-11-10T02:11:26.473Z,97007.72
2022-11-10T02:13:55.077Z,97026.38
2022-11-10T02:16:23.121Z,97029.59
2022-11-10T02:18:50.959Z,97023.84
2022-11-10T02:21:21.448Z,97040.56
2022-11-10T02:23:51.246Z,97034.41
2022-11-10T02:26:23.111Z,97032.09
2022-11-10T02:28:50.954Z,97040.75
2022-11-10T02:31:18.780Z,97039.50
2022-11-10T02:33:46.512Z,97037.06
2022-11-10T02:36:15.141Z,97055.56
2022-11-10T02:38:44.239Z,97054.38
2022-11-10T02:41:12.375Z,97050.03
2022-11-10T02:43:40.507Z,97055.22
2022-11-10T02:46:08.389Z,97052.72
2022-11-10T02:48:36.558Z,97056.81
2022-11-10T02:51:04.621Z,97055.94
2022-11-10T02:53:32.515Z,97059.66
2022-11-10T02:56:01.577Z,97066.50
2022-11-10T02:58:29.295Z,97074.56
2022-11-10T03:00:57.124Z,97084.03
2022-11-10T03:03:25.258Z,97088.16
2022-11-10T03:05:53.094Z,97100.94
2022-11-10T03:08:20.811Z,97090.91
2022-11-10T03:10:48.824Z,97093.59
2022-11-10T03:13:18.049Z,97096.66
2022-11-10T03:15:47.902Z,97097.91
2022-11-10T03:18:15.732Z,97112.06
2022-11-10T03:20:43.557Z,97113.53
2022-11-10T03:23:11.620Z,97123.19
2022-11-10T03:25:39.542Z,97128.09
2022-11-10T03:28:07.472Z,97126.06
2022-11-10T03:30:36.644Z,97135.50
2022-11-10T03:33:04.613Z,97141.03
2022-11-10T03:35:32.715Z,97141.41
2022-11-10T03:38:00.775Z,97124.59
2022-11-10T03:40:29.254Z,97151.06
2022-11-10T03:42:57.053Z,97152.31
2022-11-10T03:45:24.800Z,97157.25
2022-11-10T03:47:54.032Z,97168.00
2022-11-10T03:50:21.737Z,97167.88
2022-11-10T03:52:49.692Z,97157.00
2022-11-10T03:55:19.484Z,97167.63
2022-11-10T03:57:47.556Z,97169.31
2022-11-10T04:00:16.322Z,97170.56
2022-11-10T04:02:44.088Z,97168.53
2022-11-10T04:05:30.343Z,97171.41
2022-11-10T04:08:19.864Z,97167.53
2022-11-10T04:10:47.863Z,97165.69
2022-11-10T04:13:33.147Z,97184.59
2022-11-10T04:16:01.678Z,97190.97
2022-11-10T04:18:29.729Z,97187.50
2022-11-10T04:21:00.859Z,97174.81
2022-11-10T04:23:31.003Z,97193.72
2022-11-10T04:26:18.879Z,97205.63
2022-11-10T04:28:47.698Z,97194.94
2022-11-10T04:31:16.817Z,97204.19
2022-11-10T04:33:45.663Z,97198.06
2022-11-10T04:36:16.658Z,97207.50
2022-11-10T04:38:44.728Z,97217.56
2022-11-10T04:41:12.925Z,97212.59
2022-11-10T04:43:41.113Z,97216.09
2022-11-10T04:46:19.676Z,97227.59
2022-11-10T04:48:47.504Z,97233.72
2022-11-10T04:51:17.295Z,97236.03
2022-11-10T04:53:45.077Z,97237.25
2022-11-10T04:56:15.884Z,97244.41
2022-11-10T04:58:43.972Z,97238.84
2022-11-10T05:01:12.913Z,97246.25
2022-11-10T05:03:41.039Z,97223.66
2022-11-10T05:06:09.844Z,97235.19
2022-11-10T05:08:39.957Z,97244.59
2022-11-10T05:11:08.045Z,97250.19
2022-11-10T05:13:35.784Z,97244.47
2022-11-10T05:16:03.966Z,97246.72
2022-11-10T05:18:31.701Z,97250.84
2022-11-10T05:20:59.453Z,97242.63
2022-11-10T05:23:39.344Z,97252.91
2022-11-10T05:26:10.290Z,97249.19
2022-11-10T05:28:38.517Z,97234.84
2022-11-10T05:31:06.763Z,97253.72
2022-11-10T05:33:34.668Z,97263.19
2022-11-10T05:36:03.173Z,97267.69
2022-11-10T05:38:31.234Z,97273.66
2022-11-10T05:40:59.068Z,97289.06
2022-11-10T05:43:28.168Z,97282.91
2022-11-10T05:45:55.859Z,97299.53
2022-11-10T05:48:23.721Z,97313.72
2022-11-10T05:50:51.799Z,97312.47
2022-11-10T05:53:20.539Z,97311.03
2022-11-10T05:55:48.482Z,97310.41
2022-11-10T05:58:16.496Z,97305.09
2022-11-10T06:00:45.942Z,97299.94
2022-11-10T06:03:15.987Z,97298.91
2022-11-10T06:05:44.251Z,97307.69
2022-11-10T06:08:12.733Z,97314.00
2022-11-10T06:10:41.002Z,97315.44
2022-11-10T06:13:10.592Z,97324.66
2022-11-10T06:15:38.780Z,97311.94
2022-11-10T06:18:08.209Z,97322.78
2022-11-10T06:20:36.438Z,97322.13
2022-11-10T06:23:05.761Z,97346.16
2022-11-10T06:25:35.478Z,97351.88
2022-11-10T06:28:03.853Z,97349.41
2022-11-10T06:30:33.411Z,97356.38
2022-11-10T06:33:01.499Z,97352.88
2022-11-10T06:35:31.222Z,97349.59
2022-11-10T06:38:00.800Z,97358.63
2022-11-10T06:40:29.042Z,97363.72
2022-11-10T06:42:57.136Z,97369.63
2022-11-10T06:45:28.246Z,97364.28
2022-11-10T06:48:03.232Z,97362.97
2022-11-10T06:50:32.535Z,97376.72
2022-11-10T06:53:01.225Z,97384.75
2022-11-10T06:55:29.708Z,97374.75
2022-11-10T06:57:57.759Z,97397.78
2022-11-10T07:00:27.608Z,97396.19
2022-11-10T07:03:02.880Z,97388.50
2022-11-10T07:05:33.584Z,97368.75
2022-11-10T07:08:05.367Z,97394.31
2022-11-10T07:10:33.893Z,97388.13
2022-11-10T07:13:03.320Z,97384.00
2022-11-10T07:15:31.678Z,97395.13
2022-11-10T07:17:59.805Z,97408.69
2022-11-10T07:20:28.389Z,97402.34
2022-11-10T07:23:00.801Z,97412.81
2022-11-10T07:25:30.517Z,97418.63
2022-11-10T07:28:00.097Z,97428.53
2022-11-10T07:30:28.184Z,97432.09
2022-11-10T07:33:00.509Z,97431.13
2022-11-10T07:35:29.506Z,97415.47
2022-11-10T07:37:57.543Z,97422.06
2022-11-10T07:40:26.695Z,97432.84
2022-11-10T07:42:54.500Z,97433.69
2022-11-10T07:45:22.271Z,97433.69
2022-11-10T07:47:50.282Z,97418.31
2022-11-10T07:50:18.705Z,97436.81
2022-11-10T07:52:46.510Z,97434.34
2022-11-10T07:55:14.340Z,97446.69
2022-11-10T07:57:43.581Z,97458.78
2022-11-10T08:00:13.543Z,97464.56
2022-11-10T08:02:41.557Z,97446.69
2022-11-10T08:05:10.274Z,97473.59
2022-11-10T08:07:38.149Z,97466.63
2022-11-10T08:10:06.782Z,97480.59
2022-11-10T08:12:34.667Z,97472.16
2022-11-10T08:15:04.589Z,97476.25
2022-11-10T08:17:32.830Z,97472.56
2022-11-10T08:20:00.563Z,97460.03
2022-11-10T08:22:28.297Z,97475.84
2022-11-10T08:24:56.068Z,97480.16
2022-11-10T08:27:23.737Z,97486.69
2022-11-10T08:29:51.471Z,97489.13
2022-11-10T08:32:21.564Z,97487.28
2022-11-10T08:34:49.277Z,97494.69
2022-11-10T08:37:17.035Z,97491.63
2022-11-10T08:39:44.729Z,97477.66
2022-11-10T08:42:12.409Z,97509.75
2022-11-10T08:44:40.189Z,97513.03
2022-11-10T08:47:07.946Z,97503.09
2022-11-10T08:49:37.053Z,97516.25
2022-11-10T08:52:05.047Z,97512.56
2022-11-10T08:54:32.708Z,97518.34
2022-11-10T08:57:00.426Z,97517.06
2022-11-10T08:59:28.150Z,97519.13
2022-11-10T09:01:55.896Z,97524.78
2022-11-10T09:04:23.720Z,97518.72
2022-11-10T09:06:52.893Z,97525.03
2022-11-10T09:09:20.659Z,97532.00
2022-11-10T09:11:48.325Z,97541.31
2022-11-10T09:14:16.399Z,97540.63
2022-11-10T09:16:44.132Z,97552.38
2022-11-10T09:19:15.521Z,97555.28
2022-11-10T09:21:47.240Z,97552.78
2022-11-10T09:24:16.385Z,97560.19
2022-11-10T09:26:47.458Z,97559.59
2022-11-10T09:29:15.286Z,97551.97
2022-11-10T09:31:44.648Z,97549.47
2022-11-10T09:34:12.445Z,97553.56
2022-11-10T09:36:40.652Z,97547.63
2022-11-10T09:39:08.985Z,97552.41
2022-11-10T09:41:41.952Z,97538.81
2022-11-10T09:44:17.300Z,97554.44
2022-11-10T09:46:49.316Z,97555.28
2022-11-10T09:49:24.894Z,97551.88
2022-11-10T09:51:53.998Z,97556.25
2022-11-10T09:54:36.929Z,97552.25
2022-11-10T09:57:08.092Z,97558.09
2022-11-10T09:59:36.367Z,97549.88
2022-11-10T10:02:13.017Z,97574.34
2022-11-10T10:05:04.600Z,97569.84
2022-11-10T10:07:41.798Z,97575.75
2022-11-10T10:10:17.572Z,97572.59
2022-11-10T10:13:01.303Z,97574.91
2022-11-10T10:15:39.619Z,97567.06
2022-11-10T10:18:20.334Z,97568.66
2022-11-10T10:21:04.049Z,97569.56
2022-11-10T10:24:07.008Z,97565.44
2022-11-10T10:26:28.291Z,97580.47
2022-11-10T10:29:01.264Z,97568.81
2022-11-10T10:31:35.691Z,97577.66
2022-11-10T10:34:05.166Z,97579.44
2022-11-10T10:36:32.991Z,97578.63
2022-11-10T10:39:03.889Z,97579.44
2022-11-10T10:41:34.649Z,97585.34
2022-11-10T10:44:11.744Z,97576.91
2022-11-10T10:46:46.538Z,97580.41
2022-11-10T10:49:33.023Z,97588.69
2022-11-10T10:52:06.216Z,97605.09
2022-11-10T10:54:35.792Z,97609.47
2022-11-10T10:57:06.428Z,97606.56
2022-11-10T10:59:35.612Z,97599.63
2022-11-10T11:02:03.349Z,97594.53
2022-11-10T11:04:34.915Z,97604.19
2022-11-10T11:07:06.966Z,97596.06
2022-11-10T11:09:40.888Z,97598.84
2022-11-10T11:12:11.900Z,97602.56
2022-11-10T11:14:45.834Z,97608.19
2022-11-10T11:17:19.401Z,97604.94
2022-11-10T11:19:47.368Z,97603.22
2022-11-10T11:22:42.094Z,97599.97
2022-11-10T11:25:19.572Z,97599.25
2022-11-10T11:27:57.178Z,97590.97
2022-11-10T11:30:30.162Z,97596.38
2022-11-10T11:33:29.046Z,97593.53
2022-11-10T11:36:02.756Z,97594.94
2022-11-10T11:38:33.394Z,97600.94
2022-11-10T11:41:14.008Z,97587.38
2022-11-10T11:44:01.160Z,97590.31
2022-11-10T11:46:43.568Z,97583.03
2022-11-10T11:49:39.621Z,97585.97
2022-11-10T11:52:13.117Z,97588.81
2022-11-10T11:54:58.206Z,97584.56
2022-11-10T11:57:40.427Z,97584.34
2022-11-10T12:00:11.525Z,97588.06
2022-11-10T12:03:12.065Z,97577.53
2022-11-10T12:05:53.296Z,97581.34
2022-11-10T12:08:33.461Z,97567.50
2022-11-10T12:11:11.888Z,97575.63
2022-11-10T12:13:49.166Z,97577.94
2022-11-10T12:16:21.487Z,97580.31
2022-11-10T12:18:56.474Z,97583.59
2022-11-10T12:21:26.431Z,97579.88
2022-11-10T12:24:11.573Z,97582.72
2022-11-10T12:26:46.626Z,97567.94
2022-11-10T12:29:28.983Z,97578.06
2022-11-10T12:32:04.264Z,97578.03
2022-11-10T12:34:40.865Z,97575.16
2022-11-10T12:37:16.023Z,97581.03
2022-11-10T12:39:51.000Z,97583.69
2022-11-10T12:42:22.995Z,97577.66
2022-11-10T12:45:00.719Z,97559.94
2022-11-10T12:47:32.906Z,97566.47
2022-11-10T12:50:20.509Z,97572.06
2022-11-10T12:52:54.539Z,97561.56
2022-11-10T12:55:37.127Z,97563.84
2022-11-10T12:58:07.255Z,97552.09
2022-11-10T13:00:43.079Z,97558.22
2022-11-10T13:03:17.129Z,97561.34
2022-11-10T13:05:56.794Z,97568.41
2022-11-10T13:08:32.878Z,97563.06
2022-11-10T13:11:04.978Z,97552.28
2022-11-10T13:13:41.956Z,97560.09
2022-11-10T13:16:11.421Z,97569.41
2022-11-10T13:19:00.520Z,97569.09
2022-11-10T13:22:09.972Z,97561.84
2022-11-10T13:24:39.549Z,97564.53
2022-11-10T13:27:12.515Z,97552.88
2022-11-10T13:29:56.295Z,97561.59
2022-11-10T13:32:27.970Z,97565.00
2022-11-10T13:34:56.225Z,97564.25
2022-11-10T13:37:50.514Z,97571.78
2022-11-10T13:40:29.467Z,97559.06
2022-11-10T13:43:24.665Z,97565.22
2022-11-10T13:46:03.844Z,97571.88
2022-11-10T13:49:03.315Z,97559.06
2022-11-10T13:51:42.512Z,97565.91
2022-11-10T13:54:31.030Z,97566.38
2022-11-10T13:57:21.294Z,97565.59
2022-11-10T13:59:53.108Z,97560.28
2022-11-10T14:03:01.236Z,97560.41
2022-11-10T14:06:12.029Z,97559.00
2022-11-10T14:08:43.987Z,97558.19
2022-11-10T14:11:21.692Z,97557.44
2022-11-10T14:13:55.472Z,97563.72
2022-11-10T14:16:26.200Z,97563.38
2022-11-10T14:18:59.959Z,97567.50
2022-11-10T14:21:33.463Z,97566.94
2022-11-10T14:24:11.985Z,97571.06
2022-11-10T14:26:45.441Z,97569.78
2022-11-10T14:29:28.329Z,97563.44
2022-11-10T14:31:56.899Z,97567.34
2022-11-10T14:34:24.888Z,97572.69
2022-11-10T14:36:55.380Z,97567.38
2022-11-10T14:39:29.349Z,97579.91
2022-11-10T14:42:00.299Z,97574.38
2022-11-10T14:44:30.168Z,97583.84
2022-11-10T14:47:13.577Z,97584.69
2022-11-10T14:49:41.385Z,97589.38
2022-11-10T14:52:15.165Z,97592.09
2022-11-10T14:54:46.546Z,97590.63
2022-11-10T14:57:19.874Z,97590.81
2022-11-10T14:59:48.481Z,97590.03
2022-11-10T15:02:18.669Z,97591.66
2022-11-10T15:04:48.947Z,97591.03
2022-11-10T15:07:17.822Z,97597.03
2022-11-10T15:10:12.559Z,97587.97
2022-11-10T15:12:42.319Z,97596.19
2022-11-10T15:15:21.708Z,97590.00
2022-11-10T15:17:51.345Z,97588.78
2022-11-10T15:20:33.991Z,97592.69
2022-11-10T15:23:03.481Z,97593.28
2022-11-10T15:25:37.628Z,97596.16
2022-11-10T15:28:18.566Z,97604.38
2022-11-10T15:30:51.256Z,97599.03
2022-11-10T15:33:25.236Z,97597.41
2022-11-10T15:35:53.830Z,97600.69
2022-11-10T15:38:28.814Z,97611.59
2022-11-10T15:41:13.531Z,97613.41
2022-11-10T15:43:42.949Z,97607.66
2022-11-10T15:46:17.820Z,97606.00
2022-11-10T15:48:48.665Z,97598.38
2022-11-10T15:51:21.472Z,97600.63
2022-11-10T15:53:52.986Z,97599.19
2022-11-10T15:56:22.706Z,97592.53
2022-11-10T15:58:57.677Z,97601.38
2022-11-10T16:01:28.585Z,97602.78
2022-11-10T16:03:56.357Z,97611.63
2022-11-10T16:06:24.072Z,97607.09
2022-11-10T16:08:51.817Z,97623.25
2022-11-10T16:11:22.000Z,97629.63
2022-11-10T16:13:53.379Z,97631.88
2022-11-10T16:16:23.759Z,97630.25
2022-11-10T16:18:52.228Z,97633.72
2022-11-10T16:21:21.901Z,97641.13
2022-11-10T16:23:49.938Z,97644.63
2022-11-10T16:26:21.182Z,97654.22
2022-11-10T16:28:49.445Z,97662.25
2022-11-10T16:31:21.855Z,97657.50
2022-11-10T16:33:50.715Z,97649.16
2022-11-10T16:36:24.674Z,97665.00
2022-11-10T16:38:53.077Z,97669.72
2022-11-10T16:41:20.855Z,97667.41
2022-11-10T16:43:48.955Z,97672.47
2022-11-10T16:46:23.035Z,97672.06
2022-11-10T16:48:53.392Z,97690.56
2022-11-10T16:51:28.386Z,97689.31
2022-11-10T16:53:56.130Z,97692.75
2022-11-10T16:56:23.880Z,97698.41
2022-11-10T16:58:51.686Z,97707.75
2022-11-10T17:01:24.745Z,97704.44
2022-11-10T17:03:55.422Z,97710.56
2022-11-10T17:06:25.555Z,97714.25
2022-11-10T17:08:55.315Z,97712.56
2022-11-10T17:11:24.012Z,97704.97
2022-11-10T17:13:51.726Z,97706.25
2022-11-10T17:16:28.301Z,97719.13
2022-11-10T17:18:57.453Z,97715.00
2022-11-10T17:21:28.589Z,97719.72
2022-11-10T17:24:01.383Z,97715.97
2022-11-10T17:26:30.506Z,97713.31
2022-11-10T17:28:58.665Z,97716.50
2022-11-10T17:31:27.783Z,97735.38
2022-11-10T17:33:55.475Z,97743.03
2022-11-10T17:36:24.502Z,97735.59
2022-11-10T17:38:52.991Z,97739.06
2022-11-10T17:41:21.211Z,97727.97
2022-11-10T17:43:48.934Z,97740.28
2022-11-10T17:46:16.940Z,97735.34
2022-11-10T17:48:47.580Z,97747.41
2022-11-10T17:51:20.129Z,97751.09
2022-11-10T17:53:48.009Z,97755.28
2022-11-10T17:56:15.744Z,97749.69
2022-11-10T17:58:43.538Z,97754.00
2022-11-10T18:01:17.440Z,97751.44
2022-11-10T18:03:46.753Z,97755.50
2022-11-10T18:06:16.262Z,97760.44
2022-11-10T18:08:44.483Z,97755.88
2022-11-10T18:11:13.748Z,97760.38
2022-11-10T18:13:42.543Z,97760.44
2022-11-10T18:16:11.267Z,97768.53
2022-11-10T18:18:40.151Z,97767.06
2022-11-10T18:21:10.552Z,97766.88
2022-11-10T18:23:38.375Z,97770.81
2022-11-10T18:26:07.008Z,97767.94
2022-11-10T18:28:35.654Z,97765.94
2022-11-10T18:31:07.752Z,97773.03
2022-11-10T18:33:35.338Z,97774.88
2022-11-10T18:36:03.077Z,97767.78
2022-11-10T18:38:32.249Z,97780.25
2022-11-10T18:41:23.541Z,97783.13
2022-11-10T18:43:51.265Z,97781.69
2022-11-10T18:46:19.010Z,97775.81
2022-11-10T18:48:47.498Z,97774.34
2022-11-10T18:51:15.643Z,97780.75
2022-11-10T18:53:44.753Z,97781.31
2022-11-10T18:56:12.411Z,97784.56
2022-11-10T18:58:40.156Z,97779.16
2022-11-10T19:01:09.375Z,97779.78
2022-11-10T19:03:37.900Z,97778.97
2022-11-10T19:06:06.696Z,97768.84
2022-11-10T19:08:34.455Z,97777.03
2022-11-10T19:11:06.878Z,97770.03
2022-11-10T19:13:34.633Z,97761.31
2022-11-10T19:16:04.887Z,97764.19
2022-11-10T19:18:32.727Z,97784.38
2022-11-10T19:21:05.309Z,97785.41
2022-11-10T19:23:33.381Z,97778.31
2022-11-10T19:26:02.117Z,97785.13
2022-11-10T19:28:31.887Z,97791.19
2022-11-10T19:31:02.752Z,97791.25
2022-11-10T19:33:31.413Z,97797.44
2022-11-10T19:36:03.218Z,97796.25
2022-11-10T19:38:31.277Z,97787.41
2022-11-10T19:40:59.171Z,97800.00
2022-11-10T19:43:27.006Z,97803.84
2022-11-10T19:45:56.131Z,97805.81
2022-11-10T19:48:24.088Z,97806.44
2022-11-10T19:50:55.389Z,97824.34
2022-11-10T19:53:23.511Z,97821.69
2022-11-10T19:55:51.571Z,97826.38
2022-11-10T19:58:19.383Z,97813.47
2022-11-10T20:00:48.156Z,97824.78
2022-11-10T20:03:17.286Z,97816.16
2022-11-10T20:05:46.591Z,97817.81
2022-11-10T20:08:15.600Z,97831.22
2022-11-10T20:10:44.949Z,97821.56
2022-11-10T20:13:13.319Z,97824.34
2022-11-10T20:15:42.188Z,97814.22
2022-11-10T20:18:11.362Z,97819.00
2022-11-10T20:20:41.463Z,97822.69
2022-11-10T20:23:11.842Z,97812.75
2022-11-10T20:25:39.986Z,97829.22
2022-11-10T20:28:07.728Z,97822.31
2022-11-10T20:30:36.449Z,97823.84
2022-11-10T20:33:06.073Z,97819.97
2022-11-10T20:35:39.771Z,97832.81
2022-11-10T20:38:08.872Z,97817.00
2022-11-10T20:40:44.452Z,97831.31
2022-11-10T20:43:14.777Z,97834.59
2022-11-10T20:45:42.696Z,97830.50
2022-11-10T20:48:10.389Z,97827.97
2022-11-10T20:50:40.985Z,97835.03
2022-11-10T20:53:10.384Z,97833.09
2022-11-10T20:55:55.924Z,97842.16
2022-11-10T20:58:25.680Z,97843.47
2022-11-10T21:00:53.519Z,97835.81
2022-11-10T21:03:21.725Z,97830.25
2022-11-10T21:05:54.503Z,97829.03
2022-11-10T21:08:23.907Z,97828.03
2022-11-10T21:10:53.241Z,97827.19
2022-11-10T21:13:21.090Z,97834.25
2022-11-10T21:15:51.484Z,97832.31
2022-11-10T21:18:20.689Z,97836.63
2022-11-10T21:20:48.498Z,97840.59
2022-11-10T21:23:19.106Z,97827.91
2022-11-10T21:25:54.563Z,97830.47
2022-11-10T21:28:22.477Z,97830.00
2022-11-10T21:30:50.370Z,97835.78
2022-11-10T21:33:18.864Z,97832.38
2022-11-10T21:35:46.602Z,97840.66
2022-11-10T21:38:15.882Z,97839.75
2022-11-10T21:40:43.725Z,97839.59
2022-11-10T21:43:15.698Z,97839.94
2022-11-10T21:45:43.474Z,97839.28
2022-11-10T21:48:11.167Z,97847.28
2022-11-10T21:50:38.853Z,97851.88
2022-11-10T21:53:07.689Z,97849.50
2022-11-10T21:55:35.410Z,97843.47
2022-11-10T21:58:03.150Z,97833.75
2022-11-10T22:00:32.577Z,97834.13
2022-11-10T22:03:00.846Z,97835.69
2022-11-10T22:05:28.869Z,97838.84
2022-11-10T22:07:56.565Z,97854.44
2022-11-10T22:10:41.906Z,97855.72
2022-11-10T22:13:33.194Z,97845.81
2022-11-10T22:16:19.027Z,97848.88
2022-11-10T22:18:46.903Z,97861.91
2022-11-10T22:21:14.764Z,97858.06
2022-11-10T22:24:00.162Z,97864.47
2022-11-10T22:26:27.860Z,97866.56
2022-11-10T22:28:55.563Z,97876.41
2022-11-10T22:31:24.663Z,97873.06
2022-11-10T22:33:52.420Z,97873.47
2022-11-10T22:36:21.693Z,97868.31
2022-11-10T22:38:49.710Z,97862.44
2022-11-10T22:41:35.541Z,97868.78
2022-11-10T22:44:06.653Z,97864.91
2022-11-10T22:46:37.816Z,97867.22
2022-11-10T22:49:07.843Z,97873.31
2022-11-10T22:51:36.250Z,97858.22
2022-11-10T22:54:04.974Z,97850.34
2022-11-10T22:56:34.051Z,97846.84
2022-11-10T22:59:01.718Z,97857.16
2022-11-10T23:01:29.681Z,97845.19
2022-11-10T23:03:59.678Z,97842.09
2022-11-10T23:06:27.724Z,97852.59
2022-11-10T23:08:55.738Z,97850.38
2022-11-10T23:11:25.009Z,97854.41
2022-11-10T23:13:52.893Z,97852.31
2022-11-10T23:16:22.516Z,97856.88
2022-11-10T23:18:52.328Z,97845.66
2022-11-10T23:21:23.902Z,97842.34
2022-11-10T23:23:53.499Z,97839.88
2022-11-10T23:26:22.690Z,97840.44
2022-11-10T23:28:50.862Z,97842.44
2022-11-10T23:31:21.674Z,97843.00
2022-11-10T23:33:51.575Z,97847.56
2022-11-10T23:36:22.484Z,97850.06
2022-11-10T23:38:50.658Z,97855.47
2022-11-10T23:41:20.997Z,97855.47
2022-11-10T23:43:48.745Z,97843.50
2022-11-10T23:46:16.816Z,97852.50
2022-11-10T23:48:44.520Z,97861.69
2022-11-10T23:51:14.325Z,97846.25
2022-11-10T23:53:43.659Z,97855.59
2022-11-10T23:56:13.737Z,97862.28
2022-11-10T23:58:41.845Z,97870.50
